createdAt,value
2016-07-13T00:00:54.452Z,1006.38
2016-07-13T00:01:54.440Z,1006.39
2016-07-13T00:02:54.422Z,1006.36
2016-07-13T00:03:54.417Z,1006.39
2016-07-13T00:04:54.393Z,1006.32
2016-07-13T00:05:54.382Z,1006.35
2016-07-13T00:06:54.368Z,1006.33
2016-07-13T00:07:54.348Z,1006.3
2016-07-13T00:08:54.335Z,1006.32
2016-07-13T00:09:54.319Z,1006.32
2016-07-13T00:10:54.306Z,1006.33
2016-07-13T00:11:54.291Z,1006.39
2016-07-13T00:12:54.276Z,1006.32
2016-07-13T00:13:54.263Z,1006.35
2016-07-13T00:14:54.249Z,1006.34
2016-07-13T00:15:54.238Z,1006.34
2016-07-13T00:16:54.221Z,1006.38
2016-07-13T00:17:54.206Z,1006.38
2016-07-13T00:18:54.191Z,1006.35
2016-07-13T00:19:54.178Z,1006.37
2016-07-13T00:20:54.160Z,1006.35
2016-07-13T00:21:54.146Z,1006.34
2016-07-13T00:22:54.131Z,1006.31
2016-07-13T00:23:54.117Z,1006.33
2016-07-13T00:24:54.103Z,1006.31
2016-07-13T00:25:54.087Z,1006.29
2016-07-13T00:26:54.071Z,1006.25
2016-07-13T00:27:54.062Z,1006.28
2016-07-13T00:28:54.045Z,1006.24
2016-07-13T00:29:54.029Z,1006.24
2016-07-13T00:30:54.012Z,1006.25
2016-07-13T00:31:54.001Z,1006.29
2016-07-13T00:32:53.985Z,1006.27
2016-07-13T00:33:53.970Z,1006.23
2016-07-13T00:34:53.957Z,1006.26
2016-07-13T00:35:53.942Z,1006.25
2016-07-13T00:36:53.929Z,1006.23
2016-07-13T00:37:53.915Z,1006.23
2016-07-13T00:38:53.901Z,1006.25
2016-07-13T00:39:53.887Z,1006.23
2016-07-13T00:40:53.869Z,1006.25
2016-07-13T00:41:53.858Z,1006.26
2016-07-13T00:42:53.842Z,1006.22
2016-07-13T00:43:53.826Z,1006.25
2016-07-13T00:44:53.808Z,1006.23
2016-07-13T00:45:53.798Z,1006.25
2016-07-13T00:46:53.783Z,1006.29
2016-07-13T00:47:53.768Z,1006.28
2016-07-13T00:48:53.754Z,1006.29
2016-07-13T00:49:53.740Z,1006.36
2016-07-13T00:50:53.728Z,1006.3
2016-07-13T00:51:53.709Z,1006.29
2016-07-13T00:52:53.695Z,1006.29
2016-07-13T00:53:53.683Z,1006.24
2016-07-13T00:54:53.666Z,1006.22
2016-07-13T00:55:53.651Z,1006.19
2016-07-13T00:56:53.634Z,1006.2
2016-07-13T00:57:53.623Z,1006.18
2016-07-13T00:58:53.608Z,1006.2
2016-07-13T00:59:53.593Z,1006.2
2016-07-13T01:00:53.597Z,1006.14
2016-07-13T01:01:53.562Z,1006.14
2016-07-13T01:02:53.547Z,1006.22
2016-07-13T01:03:53.534Z,1006.17
2016-07-13T01:04:53.521Z,1006.13
2016-07-13T01:05:53.505Z,1006.19
2016-07-13T01:06:53.494Z,1006.17
2016-07-13T01:07:53.477Z,1006.17
2016-07-13T01:08:53.462Z,1006.19
2016-07-13T01:09:53.447Z,1006.24
2016-07-13T01:10:53.434Z,1006.24
2016-07-13T01:11:53.419Z,1006.19
2016-07-13T01:12:53.404Z,1006.19
2016-07-13T01:13:53.391Z,1006.17
2016-07-13T01:14:53.375Z,1006.18
2016-07-13T01:15:53.359Z,1006.2
2016-07-13T01:16:53.351Z,1006.19
2016-07-13T01:17:53.329Z,1006.2
2016-07-13T01:18:53.320Z,1006.19
2016-07-13T01:19:53.301Z,1006.19
2016-07-13T01:20:53.286Z,1006.21
2016-07-13T01:21:53.271Z,1006.22
2016-07-13T01:22:53.262Z,1006.21
2016-07-13T01:23:53.245Z,1006.22
2016-07-13T01:24:53.230Z,1006.23
2016-07-13T01:25:53.211Z,1006.27
2016-07-13T01:26:53.201Z,1006.21
2016-07-13T01:27:53.182Z,1006.26
2016-07-13T01:28:53.172Z,1006.23
2016-07-13T01:29:53.152Z,1006.19
2016-07-13T01:30:53.140Z,1006.17
2016-07-13T01:31:53.123Z,1006.21
2016-07-13T01:32:53.112Z,1006.2
2016-07-13T01:33:53.093Z,1006.22
2016-07-13T01:34:53.079Z,1006.23
2016-07-13T01:35:53.062Z,1006.24
2016-07-13T01:36:53.046Z,1006.24
2016-07-13T01:37:53.034Z,1006.24
2016-07-13T01:38:53.023Z,1006.25
2016-07-13T01:39:53.003Z,1006.26
2016-07-13T01:40:52.988Z,1006.23
2016-07-13T01:41:52.974Z,1006.26
2016-07-13T01:42:52.958Z,1006.24
2016-07-13T01:43:52.944Z,1006.26
2016-07-13T01:44:52.927Z,1006.24
2016-07-13T01:45:52.916Z,1006.24
2016-07-13T01:46:52.901Z,1006.24
2016-07-13T01:47:52.884Z,1006.21
2016-07-13T01:48:52.869Z,1006.24
2016-07-13T01:49:52.853Z,1006.29
2016-07-13T01:50:52.841Z,1006.29
2016-07-13T01:51:52.823Z,1006.29
2016-07-13T01:52:52.812Z,1006.31
2016-07-13T01:53:52.792Z,1006.3
2016-07-13T01:54:52.783Z,1006.31
2016-07-13T01:55:52.760Z,1006.25
2016-07-13T01:56:52.747Z,1006.27
2016-07-13T01:57:52.731Z,1006.24
2016-07-13T01:58:52.717Z,1006.21
2016-07-13T01:59:52.700Z,1006.24
2016-07-13T02:00:52.683Z,1006.27
2016-07-13T02:01:52.671Z,1006.26
2016-07-13T02:02:52.656Z,1006.24
2016-07-13T02:03:52.640Z,1006.25
2016-07-13T02:04:52.625Z,1006.23
2016-07-13T02:05:52.607Z,1006.24
2016-07-13T02:06:52.595Z,1006.19
2016-07-13T02:07:52.577Z,1006.24
2016-07-13T02:08:52.569Z,1006.24
2016-07-13T02:09:52.549Z,1006.24
2016-07-13T02:10:52.533Z,1006.22
2016-07-13T02:11:52.517Z,1006.23
2016-07-13T02:12:52.503Z,1006.2
2016-07-13T02:13:52.489Z,1006.29
2016-07-13T02:14:52.475Z,1006.25
2016-07-13T02:15:52.460Z,1006.26
2016-07-13T02:16:52.440Z,1006.31
2016-07-13T02:17:52.427Z,1006.27
2016-07-13T02:18:52.415Z,1006.28
2016-07-13T02:19:52.395Z,1006.29
2016-07-13T02:20:52.382Z,1006.26
2016-07-13T02:21:52.366Z,1006.27
2016-07-13T02:22:52.350Z,1006.3
2016-07-13T02:23:52.338Z,1006.29
2016-07-13T02:24:52.319Z,1006.29
2016-07-13T02:25:52.307Z,1006.33
2016-07-13T02:26:52.289Z,1006.33
2016-07-13T02:27:52.274Z,1006.35
2016-07-13T02:28:52.259Z,1006.35
2016-07-13T02:29:52.245Z,1006.34
2016-07-13T02:30:52.228Z,1006.35
2016-07-13T02:31:52.215Z,1006.34
2016-07-13T02:32:52.197Z,1006.35
2016-07-13T02:33:52.186Z,1006.35
2016-07-13T02:34:52.167Z,1006.34
2016-07-13T02:35:52.153Z,1006.37
2016-07-13T02:36:52.137Z,1006.35
2016-07-13T02:37:52.118Z,1006.36
2016-07-13T02:38:52.108Z,1006.35
2016-07-13T02:39:52.088Z,1006.37
2016-07-13T02:40:52.074Z,1006.38
2016-07-13T02:41:52.060Z,1006.37
2016-07-13T02:42:52.045Z,1006.35
2016-07-13T02:43:52.027Z,1006.35
2016-07-13T02:44:52.013Z,1006.36
2016-07-13T02:45:51.998Z,1006.4
2016-07-13T02:46:51.984Z,1006.4
2016-07-13T02:47:51.971Z,1006.39
2016-07-13T02:48:51.954Z,1006.38
2016-07-13T02:49:51.938Z,1006.38
2016-07-13T02:50:51.919Z,1006.34
2016-07-13T02:51:51.911Z,1006.33
2016-07-13T02:52:51.891Z,1006.34
2016-07-13T02:53:51.875Z,1006.31
2016-07-13T02:54:51.859Z,1006.33
2016-07-13T02:55:51.845Z,1006.34
2016-07-13T02:56:51.829Z,1006.33
2016-07-13T02:57:51.814Z,1006.36
2016-07-13T02:58:51.799Z,1006.37
2016-07-13T02:59:51.784Z,1006.37
2016-07-13T03:00:51.768Z,1006.37
2016-07-13T03:01:51.751Z,1006.36
2016-07-13T03:02:51.737Z,1006.36
2016-07-13T03:03:51.720Z,1006.31
2016-07-13T03:04:51.705Z,1006.31
2016-07-13T03:05:51.689Z,1006.28
2016-07-13T03:06:51.675Z,1006.28
2016-07-13T03:07:51.658Z,1006.25
2016-07-13T03:08:51.645Z,1006.26
2016-07-13T03:09:51.633Z,1006.24
2016-07-13T03:10:51.612Z,1006.23
2016-07-13T03:11:51.597Z,1006.26
2016-07-13T03:12:51.580Z,1006.25
2016-07-13T03:13:51.567Z,1006.21
2016-07-13T03:14:51.552Z,1006.23
2016-07-13T03:15:51.534Z,1006.24
2016-07-13T03:16:51.521Z,1006.26
2016-07-13T03:17:51.503Z,1006.26
2016-07-13T03:18:51.493Z,1006.29
2016-07-13T03:19:51.474Z,1006.29
2016-07-13T03:20:51.460Z,1006.27
2016-07-13T03:21:51.443Z,1006.27
2016-07-13T03:22:51.432Z,1006.28
2016-07-13T03:23:51.411Z,1006.24
2016-07-13T03:24:51.395Z,1006.27
2016-07-13T03:25:51.382Z,1006.31
2016-07-13T03:26:51.363Z,1006.24
2016-07-13T03:27:51.353Z,1006.27
2016-07-13T03:28:51.335Z,1006.23
2016-07-13T03:29:51.319Z,1006.27
2016-07-13T03:30:51.304Z,1006.27
2016-07-13T03:31:51.290Z,1006.28
2016-07-13T03:32:51.270Z,1006.29
2016-07-13T03:33:51.257Z,1006.28
2016-07-13T03:34:51.240Z,1006.31
2016-07-13T03:35:51.227Z,1006.29
2016-07-13T03:36:51.211Z,1006.31
2016-07-13T03:37:51.200Z,1006.28
2016-07-13T03:38:51.178Z,1006.25
2016-07-13T03:39:51.164Z,1006.28
2016-07-13T03:40:51.146Z,1006.25
2016-07-13T03:41:51.131Z,1006.2
2016-07-13T03:42:51.118Z,1006.27
2016-07-13T03:43:51.102Z,1006.3
2016-07-13T03:44:51.088Z,1006.32
2016-07-13T03:45:51.079Z,1006.3
2016-07-13T03:46:51.057Z,1006.31
2016-07-13T03:47:51.042Z,1006.32
2016-07-13T03:48:51.023Z,1006.33
2016-07-13T03:49:51.008Z,1006.35
2016-07-13T03:50:50.995Z,1006.37
2016-07-13T03:51:50.977Z,1006.37
2016-07-13T03:52:50.964Z,1006.36
2016-07-13T03:53:50.946Z,1006.38
2016-07-13T03:54:50.936Z,1006.36
2016-07-13T03:55:50.914Z,1006.35
2016-07-13T03:56:50.901Z,1006.35
2016-07-13T03:57:50.885Z,1006.34
2016-07-13T03:58:50.875Z,1006.33
2016-07-13T03:59:50.855Z,1006.26
2016-07-13T04:00:50.838Z,1006.31
2016-07-13T04:01:50.823Z,1006.29
2016-07-13T04:02:50.809Z,1006.31
2016-07-13T04:03:50.792Z,1006.3
2016-07-13T04:04:50.778Z,1006.3
2016-07-13T04:05:50.758Z,1006.32
2016-07-13T04:06:50.748Z,1006.31
2016-07-13T04:07:50.727Z,1006.31
2016-07-13T04:08:50.714Z,1006.32
2016-07-13T04:09:50.699Z,1006.3
2016-07-13T04:10:50.684Z,1006.33
2016-07-13T04:11:50.664Z,1006.3
2016-07-13T04:12:50.655Z,1006.27
2016-07-13T04:13:50.634Z,1006.3
2016-07-13T04:14:50.621Z,1006.31
2016-07-13T04:15:50.603Z,1006.32
2016-07-13T04:16:50.587Z,1006.35
2016-07-13T04:17:50.575Z,1006.35
2016-07-13T04:18:50.557Z,1006.36
2016-07-13T04:19:50.541Z,1006.43
2016-07-13T04:20:50.526Z,1006.36
2016-07-13T04:21:50.510Z,1006.39
2016-07-13T04:22:50.495Z,1006.4
2016-07-13T04:23:50.480Z,1006.38
2016-07-13T04:24:50.462Z,1006.4
2016-07-13T04:25:50.451Z,1006.44
2016-07-13T04:26:50.432Z,1006.41
2016-07-13T04:27:50.420Z,1006.38
2016-07-13T04:28:50.401Z,1006.36
2016-07-13T04:29:50.385Z,1006.36
2016-07-13T04:30:50.369Z,1006.4
2016-07-13T04:31:50.353Z,1006.35
2016-07-13T04:32:50.337Z,1006.35
2016-07-13T04:33:50.332Z,1006.32
2016-07-13T04:34:50.305Z,1006.35
2016-07-13T04:35:50.290Z,1006.34
2016-07-13T04:36:50.275Z,1006.39
2016-07-13T04:37:50.259Z,1006.34
2016-07-13T04:38:50.245Z,1006.4
2016-07-13T04:39:50.228Z,1006.38
2016-07-13T04:40:50.214Z,1006.43
2016-07-13T04:41:50.197Z,1006.39
2016-07-13T04:42:50.181Z,1006.41
2016-07-13T04:43:50.168Z,1006.38
2016-07-13T04:44:50.150Z,1006.41
2016-07-13T04:45:50.145Z,1006.39
2016-07-13T04:46:50.123Z,1006.4
2016-07-13T04:47:50.102Z,1006.38
2016-07-13T04:48:50.094Z,1006.37
2016-07-13T04:49:50.070Z,1006.38
2016-07-13T04:50:50.058Z,1006.36
2016-07-13T04:51:50.041Z,1006.41
2016-07-13T04:52:50.022Z,1006.39
2016-07-13T04:53:50.011Z,1006.44
2016-07-13T04:54:49.994Z,1006.45
2016-07-13T04:55:49.979Z,1006.45
2016-07-13T04:56:49.962Z,1006.45
2016-07-13T04:57:49.945Z,1006.52
2016-07-13T04:58:49.931Z,1006.54
2016-07-13T04:59:49.916Z,1006.54
2016-07-13T05:00:49.898Z,1006.53
2016-07-13T05:01:49.886Z,1006.55
2016-07-13T05:02:49.866Z,1006.54
2016-07-13T05:03:49.855Z,1006.53
2016-07-13T05:04:49.833Z,1006.52
2016-07-13T05:05:49.824Z,1006.54
2016-07-13T05:06:49.804Z,1006.52
2016-07-13T05:07:49.791Z,1006.57
2016-07-13T05:08:49.775Z,1006.56
2016-07-13T05:09:49.759Z,1006.59
2016-07-13T05:10:49.746Z,1006.51
2016-07-13T05:11:49.728Z,1006.51
2016-07-13T05:12:49.712Z,1006.49
2016-07-13T05:13:49.693Z,1006.54
2016-07-13T05:14:49.679Z,1006.59
2016-07-13T05:15:49.669Z,1006.55
2016-07-13T05:16:49.648Z,1006.53
2016-07-13T05:17:49.634Z,1006.58
2016-07-13T05:18:49.614Z,1006.56
2016-07-13T05:19:49.601Z,1006.59
2016-07-13T05:20:49.587Z,1006.58
2016-07-13T05:21:49.571Z,1006.57
2016-07-13T05:22:49.555Z,1006.55
2016-07-13T05:23:49.550Z,1006.51
2016-07-13T05:24:49.524Z,1006.51
2016-07-13T05:25:49.508Z,1006.51
2016-07-13T05:26:49.492Z,1006.52
2016-07-13T05:27:49.477Z,1006.57
2016-07-13T05:28:49.464Z,1006.52
2016-07-13T05:29:49.443Z,1006.55
2016-07-13T05:30:49.430Z,1006.55
2016-07-13T05:31:49.415Z,1006.56
2016-07-13T05:32:49.398Z,1006.52
2016-07-13T05:33:49.380Z,1006.56
2016-07-13T05:34:49.367Z,1006.56
2016-07-13T05:35:49.352Z,1006.53
2016-07-13T05:36:49.333Z,1006.54
2016-07-13T05:37:49.320Z,1006.51
2016-07-13T05:38:49.302Z,1006.55
2016-07-13T05:39:49.289Z,1006.57
2016-07-13T05:40:49.272Z,1006.62
2016-07-13T05:41:49.256Z,1006.6
2016-07-13T05:42:49.240Z,1006.55
2016-07-13T05:43:49.222Z,1006.55
2016-07-13T05:44:49.210Z,1006.61
2016-07-13T05:45:49.193Z,1006.61
2016-07-13T05:46:49.180Z,1006.63
2016-07-13T05:47:49.165Z,1006.59
2016-07-13T05:48:49.145Z,1006.6
2016-07-13T05:49:49.135Z,1006.62
2016-07-13T05:50:49.115Z,1006.64
2016-07-13T05:51:49.098Z,1006.66
2016-07-13T05:52:49.082Z,1006.64
2016-07-13T05:53:49.068Z,1006.65
2016-07-13T05:54:49.054Z,1006.66
2016-07-13T05:55:49.036Z,1006.69
2016-07-13T05:56:49.021Z,1006.68
2016-07-13T05:57:49.003Z,1006.7
2016-07-13T05:58:48.988Z,1006.72
2016-07-13T05:59:48.971Z,1006.73
2016-07-13T06:00:48.956Z,1006.71
2016-07-13T06:01:48.944Z,1006.74
2016-07-13T06:02:48.926Z,1006.74
2016-07-13T06:03:48.909Z,1006.77
2016-07-13T06:04:48.893Z,1006.8
2016-07-13T06:05:48.878Z,1006.76
2016-07-13T06:06:48.866Z,1006.75
2016-07-13T06:07:48.849Z,1006.74
2016-07-13T06:08:48.832Z,1006.74
2016-07-13T06:09:48.814Z,1006.7
2016-07-13T06:10:48.798Z,1006.73
2016-07-13T06:11:48.782Z,1006.68
2016-07-13T06:12:48.771Z,1006.7
2016-07-13T06:13:48.750Z,1006.7
2016-07-13T06:14:48.735Z,1006.71
2016-07-13T06:15:48.730Z,1006.74
2016-07-13T06:16:48.703Z,1006.75
2016-07-13T06:17:48.691Z,1006.7
2016-07-13T06:18:48.672Z,1006.71
2016-07-13T06:19:48.658Z,1006.75
2016-07-13T06:20:48.641Z,1006.77
2016-07-13T06:21:48.627Z,1006.75
2016-07-13T06:22:48.612Z,1006.78
2016-07-13T06:23:48.596Z,1006.77
2016-07-13T06:24:48.578Z,1006.8
2016-07-13T06:25:48.565Z,1006.78
2016-07-13T06:26:48.548Z,1006.79
2016-07-13T06:27:48.533Z,1006.8
2016-07-13T06:28:48.516Z,1006.78
2016-07-13T06:29:48.500Z,1006.77
2016-07-13T06:30:48.492Z,1006.79
2016-07-13T06:31:48.469Z,1006.79
2016-07-13T06:32:48.454Z,1006.82
2016-07-13T06:33:48.439Z,1006.81
2016-07-13T06:34:48.423Z,1006.85
2016-07-13T06:35:48.404Z,1006.85
2016-07-13T06:36:48.389Z,1006.87
2016-07-13T06:37:48.375Z,1006.88
2016-07-13T06:38:48.361Z,1006.9
2016-07-13T06:39:48.341Z,1006.88
2016-07-13T06:40:48.335Z,1006.89
2016-07-13T06:41:48.311Z,1006.91
2016-07-13T06:42:48.295Z,1006.9
2016-07-13T06:43:48.280Z,1006.84
2016-07-13T06:44:48.265Z,1006.87
2016-07-13T06:45:48.250Z,1006.84
2016-07-13T06:46:48.232Z,1006.9
2016-07-13T06:47:48.220Z,1006.88
2016-07-13T06:48:48.204Z,1006.89
2016-07-13T06:49:48.183Z,1006.85
2016-07-13T06:50:48.175Z,1006.86
2016-07-13T06:51:48.153Z,1006.86
2016-07-13T06:52:48.140Z,1006.88
2016-07-13T06:53:48.119Z,1006.89
2016-07-13T06:54:48.107Z,1006.87
2016-07-13T06:55:48.094Z,1006.88
2016-07-13T06:56:48.077Z,1006.91
2016-07-13T06:57:48.061Z,1006.87
2016-07-13T06:58:48.047Z,1006.83
2016-07-13T06:59:48.031Z,1006.87
2016-07-13T07:00:48.014Z,1006.87
2016-07-13T07:01:48.001Z,1006.85
2016-07-13T07:02:47.984Z,1006.83
2016-07-13T07:03:47.968Z,1006.85
2016-07-13T07:04:47.952Z,1006.89
2016-07-13T07:05:47.940Z,1006.88
2016-07-13T07:06:47.921Z,1006.87
2016-07-13T07:07:47.903Z,1006.84
2016-07-13T07:08:47.888Z,1006.84
2016-07-13T07:09:47.886Z,1006.86
2016-07-13T07:10:47.856Z,1006.84
2016-07-13T07:11:47.841Z,1006.87
2016-07-13T07:12:47.827Z,1006.83
2016-07-13T07:13:47.810Z,1006.88
2016-07-13T07:14:47.795Z,1006.87
2016-07-13T07:15:47.779Z,1006.89
2016-07-13T07:16:47.762Z,1006.87
2016-07-13T07:17:47.745Z,1006.86
2016-07-13T07:18:47.731Z,1006.89
2016-07-13T07:19:47.713Z,1006.89
2016-07-13T07:20:47.702Z,1006.87
2016-07-13T07:21:47.684Z,1006.9
2016-07-13T07:22:47.666Z,1006.87
2016-07-13T07:23:47.652Z,1006.9
2016-07-13T07:24:47.638Z,1006.89
2016-07-13T07:25:47.622Z,1006.94
2016-07-13T07:26:47.604Z,1006.87
2016-07-13T07:27:47.592Z,1006.87
2016-07-13T07:28:47.574Z,1006.88
2016-07-13T07:29:47.558Z,1006.83
2016-07-13T07:30:47.547Z,1006.87
2016-07-13T07:31:47.528Z,1006.83
2016-07-13T07:32:47.510Z,1006.87
2016-07-13T07:33:47.494Z,1006.85
2016-07-13T07:34:47.481Z,1006.87
2016-07-13T07:35:47.466Z,1006.86
2016-07-13T07:36:47.449Z,1006.86
2016-07-13T07:37:47.433Z,1006.82
2016-07-13T07:38:47.425Z,1006.88
2016-07-13T07:39:47.404Z,1006.87
2016-07-13T07:40:47.385Z,1006.87
2016-07-13T07:41:47.371Z,1006.82
2016-07-13T07:42:47.352Z,1006.87
2016-07-13T07:43:47.339Z,1006.87
2016-07-13T07:44:47.322Z,1006.85
2016-07-13T07:45:47.307Z,1006.88
2016-07-13T07:46:47.296Z,1006.82
2016-07-13T07:47:47.277Z,1006.86
2016-07-13T07:48:47.257Z,1006.83
2016-07-13T07:49:47.244Z,1006.8
2016-07-13T07:50:47.227Z,1006.79
2016-07-13T07:51:47.210Z,1006.82
2016-07-13T07:52:47.195Z,1006.83
2016-07-13T07:53:47.179Z,1006.79
2016-07-13T07:54:47.166Z,1006.79
2016-07-13T07:55:47.148Z,1006.86
2016-07-13T07:56:47.135Z,1006.83
2016-07-13T07:57:47.119Z,1006.84
2016-07-13T07:58:47.105Z,1006.83
2016-07-13T07:59:47.087Z,1006.89
2016-07-13T08:00:47.074Z,1006.83
2016-07-13T08:01:47.055Z,1006.87
2016-07-13T08:02:47.040Z,1006.86
2016-07-13T08:03:47.023Z,1006.9
2016-07-13T08:04:47.010Z,1006.85
2016-07-13T08:05:46.993Z,1006.88
2016-07-13T08:06:46.977Z,1006.85
2016-07-13T08:07:46.961Z,1006.88
2016-07-13T08:08:46.946Z,1006.86
2016-07-13T08:09:46.930Z,1006.9
2016-07-13T08:10:46.913Z,1006.89
2016-07-13T08:11:46.897Z,1006.91
2016-07-13T08:12:46.882Z,1006.86
2016-07-13T08:13:46.869Z,1006.88
2016-07-13T08:14:46.851Z,1006.77
2016-07-13T08:15:46.842Z,1006.87
2016-07-13T08:16:46.823Z,1006.84
2016-07-13T08:17:46.804Z,1006.86
2016-07-13T08:18:46.791Z,1006.89
2016-07-13T08:19:46.775Z,1006.84
2016-07-13T08:20:46.760Z,1006.83
2016-07-13T08:21:46.742Z,1006.83
2016-07-13T08:22:46.728Z,1006.82
2016-07-13T08:23:46.715Z,1006.83
2016-07-13T08:24:46.697Z,1006.85
2016-07-13T08:25:46.678Z,1006.84
2016-07-13T08:26:46.664Z,1006.78
2016-07-13T08:27:46.650Z,1006.77
2016-07-13T08:28:46.634Z,1006.79
2016-07-13T08:29:46.617Z,1006.84
2016-07-13T08:30:46.607Z,1006.82
2016-07-13T08:31:46.586Z,1006.8
2016-07-13T08:32:46.573Z,1006.74
2016-07-13T08:33:46.556Z,1006.76
2016-07-13T08:34:46.541Z,1006.8
2016-07-13T08:35:46.524Z,1006.75
2016-07-13T08:36:46.510Z,1006.77
2016-07-13T08:37:46.492Z,1006.8
2016-07-13T08:38:46.478Z,1006.82
2016-07-13T08:39:46.461Z,1006.8
2016-07-13T08:40:46.449Z,1006.81
2016-07-13T08:41:46.433Z,1006.82
2016-07-13T08:42:46.414Z,1006.8
2016-07-13T08:43:46.398Z,1006.82
2016-07-13T08:44:46.386Z,1006.84
2016-07-13T08:45:46.369Z,1006.82
2016-07-13T08:46:46.356Z,1006.86
2016-07-13T08:47:46.337Z,1006.84
2016-07-13T08:48:46.321Z,1006.82
2016-07-13T08:49:46.310Z,1006.86
2016-07-13T08:50:46.290Z,1006.82
2016-07-13T08:51:46.275Z,1006.9
2016-07-13T08:52:46.258Z,1006.86
2016-07-13T08:53:46.244Z,1006.84
2016-07-13T08:54:46.227Z,1006.86
2016-07-13T08:55:46.212Z,1006.88
2016-07-13T08:56:46.197Z,1006.89
2016-07-13T08:57:46.183Z,1006.84
2016-07-13T08:58:46.166Z,1006.86
2016-07-13T08:59:46.151Z,1006.86
2016-07-13T09:00:46.135Z,1006.86
2016-07-13T09:01:46.118Z,1006.9
2016-07-13T09:02:46.102Z,1006.86
2016-07-13T09:03:46.087Z,1006.84
2016-07-13T09:04:46.072Z,1006.91
2016-07-13T09:05:46.056Z,1006.89
2016-07-13T09:06:46.042Z,1006.82
2016-07-13T09:07:46.026Z,1006.86
2016-07-13T09:08:46.010Z,1006.85
2016-07-13T09:09:45.998Z,1006.9
2016-07-13T09:10:45.978Z,1006.85
2016-07-13T09:11:45.964Z,1006.83
2016-07-13T09:12:45.946Z,1006.88
2016-07-13T09:13:45.931Z,1006.9
2016-07-13T09:14:45.916Z,1006.88
2016-07-13T09:15:45.902Z,1006.94
2016-07-13T09:16:45.885Z,1006.94
2016-07-13T09:17:45.869Z,1006.95
2016-07-13T09:18:45.852Z,1006.9
2016-07-13T09:19:45.832Z,1006.83
2016-07-13T09:20:45.823Z,1006.87
2016-07-13T09:21:45.807Z,1006.83
2016-07-13T09:22:45.797Z,1006.81
2016-07-13T09:23:45.776Z,1006.86
2016-07-13T09:24:45.762Z,1006.84
2016-07-13T09:25:45.747Z,1006.82
2016-07-13T09:26:45.731Z,1006.79
2016-07-13T09:27:45.716Z,1006.85
2016-07-13T09:28:45.701Z,1006.76
2016-07-13T09:29:45.685Z,1006.77
2016-07-13T09:30:45.669Z,1006.81
2016-07-13T09:31:45.652Z,1006.81
2016-07-13T09:32:45.638Z,1006.74
2016-07-13T09:33:45.623Z,1006.79
2016-07-13T09:34:45.611Z,1006.79
2016-07-13T09:35:45.590Z,1006.79
2016-07-13T09:36:45.576Z,1006.81
2016-07-13T09:37:45.561Z,1006.78
2016-07-13T09:38:45.543Z,1006.8
2016-07-13T09:39:45.531Z,1006.82
2016-07-13T09:40:45.516Z,1006.78
2016-07-13T09:41:45.500Z,1006.77
2016-07-13T09:42:45.485Z,1006.8
2016-07-13T09:43:45.469Z,1006.84
2016-07-13T09:44:45.457Z,1006.84
2016-07-13T09:45:45.441Z,1006.87
2016-07-13T09:46:45.424Z,1006.84
2016-07-13T09:47:45.412Z,1006.82
2016-07-13T09:48:45.395Z,1006.82
2016-07-13T09:49:45.379Z,1006.8
2016-07-13T09:50:45.363Z,1006.8
2016-07-13T09:51:45.347Z,1006.87
2016-07-13T09:52:45.328Z,1006.83
2016-07-13T09:53:45.315Z,1006.82
2016-07-13T09:54:45.303Z,1006.84
2016-07-13T09:55:45.287Z,1006.84
2016-07-13T09:56:45.272Z,1006.82
2016-07-13T09:57:45.256Z,1006.81
2016-07-13T09:58:45.242Z,1006.77
2016-07-13T09:59:45.226Z,1006.78
2016-07-13T10:00:45.218Z,1006.8
2016-07-13T10:01:45.198Z,1006.71
2016-07-13T10:02:45.181Z,1006.79
2016-07-13T10:03:45.163Z,1006.76
2016-07-13T10:04:45.154Z,1006.77
2016-07-13T10:05:45.133Z,1006.76
2016-07-13T10:06:45.122Z,1006.79
2016-07-13T10:07:45.106Z,1006.75
2016-07-13T10:08:45.090Z,1006.75
2016-07-13T10:09:45.076Z,1006.77
2016-07-13T10:10:45.062Z,1006.81
2016-07-13T10:11:45.045Z,1006.74
2016-07-13T10:12:45.034Z,1006.8
2016-07-13T10:13:45.016Z,1006.81
2016-07-13T10:14:45.000Z,1006.81
2016-07-13T10:15:44.982Z,1006.79
2016-07-13T10:16:44.970Z,1006.82
2016-07-13T10:17:44.956Z,1006.83
2016-07-13T10:18:44.948Z,1006.8
2016-07-13T10:19:44.924Z,1006.8
2016-07-13T10:20:44.909Z,1006.78
2016-07-13T10:21:44.891Z,1006.72
2016-07-13T10:22:44.881Z,1006.73
2016-07-13T10:23:44.866Z,1006.72
2016-07-13T10:24:44.850Z,1006.7
2016-07-13T10:25:44.836Z,1006.7
2016-07-13T10:26:44.819Z,1006.67
2016-07-13T10:27:44.805Z,1006.69
2016-07-13T10:28:44.790Z,1006.75
2016-07-13T10:29:44.774Z,1006.7
2016-07-13T10:30:44.759Z,1006.68
2016-07-13T10:31:44.746Z,1006.62
2016-07-13T10:32:44.731Z,1006.61
2016-07-13T10:33:44.715Z,1006.64
2016-07-13T10:34:44.701Z,1006.62
2016-07-13T10:35:44.684Z,1006.59
2016-07-13T10:36:44.669Z,1006.61
2016-07-13T10:37:44.655Z,1006.64
2016-07-13T10:38:44.641Z,1006.66
2016-07-13T10:39:44.625Z,1006.72
2016-07-13T10:40:44.610Z,1006.66
2016-07-13T10:41:44.614Z,1006.64
2016-07-13T10:42:44.579Z,1006.72
2016-07-13T10:43:44.565Z,1006.71
2016-07-13T10:44:44.550Z,1006.7
2016-07-13T10:45:44.535Z,1006.68
2016-07-13T10:46:44.520Z,1006.68
2016-07-13T10:47:44.507Z,1006.72
2016-07-13T10:48:44.491Z,1006.67
2016-07-13T10:49:44.477Z,1006.68
2016-07-13T10:50:44.461Z,1006.72
2016-07-13T10:51:44.446Z,1006.7
2016-07-13T10:52:44.428Z,1006.73
2016-07-13T10:53:44.429Z,1006.74
2016-07-13T10:54:44.404Z,1006.69
2016-07-13T10:55:44.402Z,1006.65
2016-07-13T10:56:44.371Z,1006.69
2016-07-13T10:57:44.360Z,1006.72
2016-07-13T10:58:44.340Z,1006.73
2016-07-13T10:59:44.327Z,1006.79
2016-07-13T11:00:44.312Z,1006.8
2016-07-13T11:01:44.295Z,1006.82
2016-07-13T11:02:44.283Z,1006.83
2016-07-13T11:03:44.269Z,1006.79
2016-07-13T11:04:44.254Z,1006.79
2016-07-13T11:05:44.236Z,1006.85
2016-07-13T11:06:44.221Z,1006.82
2016-07-13T11:07:44.220Z,1006.84
2016-07-13T11:08:44.191Z,1006.8
2016-07-13T11:09:44.176Z,1006.8
2016-07-13T11:10:44.161Z,1006.83
2016-07-13T11:11:44.146Z,1006.8
2016-07-13T11:12:44.130Z,1006.78
2016-07-13T11:13:44.127Z,1006.79
2016-07-13T11:14:44.102Z,1006.71
2016-07-13T11:15:44.087Z,1006.75
2016-07-13T11:16:44.073Z,1006.76
2016-07-13T11:17:44.058Z,1006.75
2016-07-13T11:18:44.043Z,1006.8
2016-07-13T11:19:44.028Z,1006.79
2016-07-13T11:20:44.013Z,1006.83
2016-07-13T11:21:43.997Z,1006.82
2016-07-13T11:22:43.990Z,1006.84
2016-07-13T11:23:43.969Z,1006.77
2016-07-13T11:24:43.953Z,1006.75
2016-07-13T11:25:43.940Z,1006.78
2016-07-13T11:26:43.923Z,1006.83
2016-07-13T11:27:43.907Z,1006.83
2016-07-13T11:28:43.894Z,1006.79
2016-07-13T11:29:43.877Z,1006.83
2016-07-13T11:30:43.865Z,1006.87
2016-07-13T11:31:43.848Z,1006.88
2016-07-13T11:32:43.833Z,1006.89
2016-07-13T11:33:43.820Z,1006.95
2016-07-13T11:34:43.805Z,1006.97
2016-07-13T11:35:43.792Z,1006.89
2016-07-13T11:36:43.777Z,1006.89
2016-07-13T11:37:43.761Z,1006.93
2016-07-13T11:38:43.746Z,1006.9
2016-07-13T11:39:43.735Z,1006.81
2016-07-13T11:40:43.715Z,1006.82
2016-07-13T11:41:43.701Z,1006.82
2016-07-13T11:42:43.687Z,1006.83
2016-07-13T11:43:43.671Z,1006.91
2016-07-13T11:44:43.659Z,1006.89
2016-07-13T11:45:43.640Z,1006.91
2016-07-13T11:46:43.631Z,1006.87
2016-07-13T11:47:43.612Z,1006.91
2016-07-13T11:48:43.599Z,1006.91
2016-07-13T11:49:43.583Z,1006.86
2016-07-13T11:50:43.570Z,1006.82
2016-07-13T11:51:43.554Z,1006.85
2016-07-13T11:52:43.542Z,1006.84
2016-07-13T11:53:43.525Z,1006.86
2016-07-13T11:54:43.509Z,1006.85
2016-07-13T11:55:43.495Z,1006.86
2016-07-13T11:56:43.480Z,1006.83
2016-07-13T11:57:43.464Z,1006.84
2016-07-13T11:58:43.452Z,1006.83
2016-07-13T11:59:43.439Z,1006.86
2016-07-13T12:00:43.468Z,1006.83
2016-07-13T12:01:43.403Z,1006.79
2016-07-13T12:02:43.399Z,1006.81
2016-07-13T12:03:43.374Z,1006.86
2016-07-13T12:04:43.361Z,1006.74
2016-07-13T12:05:43.344Z,1006.75
2016-07-13T12:06:43.328Z,1006.77
2016-07-13T12:07:43.311Z,1006.79
2016-07-13T12:08:43.297Z,1006.72